NKS9918 KFLL-KGYR
Flight info
| Callsign | NKS9918 |
|---|---|
| Flight time | N/A |
| Altitude | 38000 |
| Route | BNICE2 DOLIE CIGAR Y290 LEV IAH JCT ELP J50 ALIBY J2 TUS SUNSS8 |
| Aircraft | A321/M-SDE3FGHIRWY/LB1 |
Departure
| Time | 2026-05-05 23:04 |
|---|---|
| Airport | Fort Lauderdale Hollywood International Airport (KFLL) |
Arrival
| Time | N/A |
|---|---|
| Airport | Phoenix Goodyear Airport (KGYR) |
| Time | Latitude | Longitude | Altitude | Speed | Heading |
|---|---|---|---|---|---|
| 2026-05-05 22:38 | 26.06876 | -80.14212 | 12 ft | 0 kts | 0° |
| 2026-05-05 22:53 | 26.06866 | -80.14212 | 12 ft | 3 kts | 0° |
| 2026-05-05 22:53 | 26.06843 | -80.14212 | 12 ft | 3 kts | 0° |
| 2026-05-05 22:53 | 26.06817 | -80.14213 | 12 ft | 3 kts | 0° |
| 2026-05-05 22:54 | 26.06790 | -80.14213 | 12 ft | 3 kts | 1° |
| 2026-05-05 22:54 | 26.06764 | -80.14214 | 12 ft | 3 kts | 1° |
| 2026-05-05 22:54 | 26.06763 | -80.14214 | 12 ft | 0 kts | 1° |
| 2026-05-05 22:56 | 26.06768 | -80.14214 | 12 ft | 2 kts | 353° |
| 2026-05-05 22:56 | 26.06791 | -80.14238 | 12 ft | 8 kts | 284° |
| 2026-05-05 22:56 | 26.06780 | -80.14340 | 12 ft | 14 kts | 263° |
| 2026-05-05 22:56 | 26.06770 | -80.14454 | 12 ft | 14 kts | 267° |
| 2026-05-05 22:57 | 26.06766 | -80.14562 | 12 ft | 12 kts | 269° |
| 2026-05-05 22:57 | 26.06766 | -80.14655 | 12 ft | 11 kts | 271° |
| 2026-05-05 22:57 | 26.06768 | -80.14747 | 12 ft | 11 kts | 271° |
| 2026-05-05 22:57 | 26.06770 | -80.14845 | 12 ft | 13 kts | 268° |
| 2026-05-05 22:58 | 26.06768 | -80.14947 | 12 ft | 13 kts | 270° |
| 2026-05-05 22:58 | 26.06769 | -80.15026 | 12 ft | 7 kts | 271° |
| 2026-05-05 22:58 | 26.06770 | -80.15068 | 12 ft | 5 kts | 272° |
| 2026-05-05 22:58 | 26.06791 | -80.15125 | 12 ft | 14 kts | 332° |
| 2026-05-05 22:59 | 26.06924 | -80.15129 | 12 ft | 20 kts | 0° |
| 2026-05-05 22:59 | 26.07064 | -80.15130 | 12 ft | 19 kts | 0° |
| 2026-05-05 22:59 | 26.07194 | -80.15128 | 12 ft | 18 kts | 1° |
| 2026-05-05 22:59 | 26.07316 | -80.15125 | 12 ft | 17 kts | 1° |
| 2026-05-05 23:00 | 26.07538 | -80.15135 | 12 ft | 14 kts | 329° |
| 2026-05-05 23:00 | 26.07564 | -80.15236 | 12 ft | 14 kts | 271° |
| 2026-05-05 23:00 | 26.07564 | -80.15351 | 12 ft | 15 kts | 270° |
| 2026-05-05 23:01 | 26.07565 | -80.15472 | 12 ft | 16 kts | 271° |
| 2026-05-05 23:01 | 26.07566 | -80.15617 | 12 ft | 21 kts | 271° |
| 2026-05-05 23:01 | 26.07567 | -80.15788 | 12 ft | 22 kts | 270° |
| 2026-05-05 23:01 | 26.07566 | -80.15958 | 12 ft | 22 kts | 269° |
| 2026-05-05 23:02 | 26.07565 | -80.16129 | 12 ft | 22 kts | 270° |
| 2026-05-05 23:02 | 26.07567 | -80.16299 | 12 ft | 22 kts | 271° |
| 2026-05-05 23:02 | 26.07570 | -80.16460 | 12 ft | 17 kts | 270° |
| 2026-05-05 23:02 | 26.07571 | -80.16590 | 12 ft | 14 kts | 272° |
| 2026-05-05 23:03 | 26.07589 | -80.16634 | 12 ft | 0 kts | 334° |
| 2026-05-05 23:03 | 26.07593 | -80.16636 | 12 ft | 1 kts | 335° |
| 2026-05-05 23:03 | 26.07634 | -80.16643 | 12 ft | 0 kts | 358° |
| 2026-05-05 23:04 | 26.07692 | -80.16611 | 12 ft | 21 kts | 70° |
| 2026-05-05 23:04 | 26.07694 | -80.16180 | 12 ft | 106 kts | 91° |
| 2026-05-05 23:04 | 26.07686 | -80.15074 | 352 ft | 165 kts | 88° |
| 2026-05-05 23:04 | 26.07699 | -80.13840 | 1544 ft | 167 kts | 85° |
| 2026-05-05 23:05 | 26.07730 | -80.12592 | 2690 ft | 168 kts | 86° |
| 2026-05-05 23:05 | 26.07747 | -80.11332 | 3389 ft | 170 kts | 88° |
| 2026-05-05 23:05 | 26.07918 | -80.09986 | 3867 ft | 185 kts | 73° |
| 2026-05-05 23:05 | 26.08338 | -80.08589 | 4356 ft | 201 kts | 68° |
| 2026-05-05 23:06 | 26.09097 | -80.07238 | 4828 ft | 216 kts | 41° |
| 2026-05-05 23:06 | 26.10464 | -80.06459 | 5316 ft | 231 kts | 18° |
| 2026-05-05 23:06 | 26.12077 | -80.05858 | 5736 ft | 255 kts | 17° |
| 2026-05-05 23:06 | 26.13853 | -80.05338 | 6294 ft | 272 kts | 1° |
| 2026-05-05 23:07 | 26.15674 | -80.05812 | 7038 ft | 276 kts | 327° |
| 2026-05-05 23:07 | 26.16939 | -80.07351 | 7977 ft | 275 kts | 295° |
| 2026-05-05 23:07 | 26.17469 | -80.09351 | 8911 ft | 276 kts | 284° |
| 2026-05-05 23:07 | 26.17938 | -80.11410 | 9759 ft | 280 kts | 285° |
| 2026-05-05 23:08 | 26.18468 | -80.13518 | 10584 ft | 284 kts | 287° |
| 2026-05-05 23:08 | 26.19041 | -80.15649 | 11132 ft | 298 kts | 288° |
| 2026-05-05 23:08 | 26.19677 | -80.17903 | 11535 ft | 315 kts | 288° |
| 2026-05-05 23:08 | 26.20373 | -80.20305 | 11903 ft | 333 kts | 289° |
| 2026-05-05 23:09 | 26.21112 | -80.22816 | 12219 ft | 351 kts | 289° |
| 2026-05-05 23:09 | 26.21888 | -80.25431 | 12506 ft | 368 kts | 289° |
| 2026-05-05 23:09 | 26.22717 | -80.28210 | 12809 ft | 383 kts | 289° |
| 2026-05-05 23:09 | 26.23567 | -80.31055 | 13367 ft | 389 kts | 289° |
| 2026-05-05 23:10 | 26.24415 | -80.33892 | 13905 ft | 395 kts | 289° |
| 2026-05-05 23:10 | 26.25297 | -80.36837 | 14314 ft | 404 kts | 289° |
| 2026-05-05 23:10 | 26.26191 | -80.39825 | 14876 ft | 408 kts | 289° |
| 2026-05-05 23:10 | 26.27086 | -80.42819 | 15480 ft | 410 kts | 289° |
| 2026-05-05 23:11 | 26.27986 | -80.45830 | 16049 ft | 413 kts | 289° |
| 2026-05-05 23:11 | 26.28892 | -80.48865 | 16622 ft | 416 kts | 289° |
| 2026-05-05 23:11 | 26.29801 | -80.51910 | 17184 ft | 418 kts | 289° |
| 2026-05-05 23:11 | 26.30718 | -80.54983 | 17701 ft | 420 kts | 289° |
| 2026-05-05 23:12 | 26.31640 | -80.58073 | 18203 ft | 423 kts | 289° |
| 2026-05-05 23:12 | 26.32573 | -80.61207 | 18692 ft | 425 kts | 289° |
| 2026-05-05 23:12 | 26.33491 | -80.64296 | 19152 ft | 426 kts | 289° |
| 2026-05-05 23:12 | 26.34425 | -80.67440 | 19615 ft | 428 kts | 289° |
| 2026-05-05 23:13 | 26.35365 | -80.70609 | 20082 ft | 430 kts | 289° |
| 2026-05-05 23:13 | 26.36305 | -80.73776 | 20533 ft | 431 kts | 289° |
| 2026-05-05 23:13 | 26.37242 | -80.76936 | 20936 ft | 433 kts | 289° |
| 2026-05-05 23:13 | 26.38182 | -80.80112 | 21354 ft | 434 kts | 289° |
| 2026-05-05 23:14 | 26.39126 | -80.83302 | 21742 ft | 436 kts | 289° |
| 2026-05-05 23:14 | 26.40076 | -80.86514 | 22102 ft | 437 kts | 289° |
| 2026-05-05 23:14 | 26.41028 | -80.89739 | 22456 ft | 439 kts | 289° |
| 2026-05-05 23:14 | 26.41988 | -80.92995 | 22845 ft | 440 kts | 289° |
| 2026-05-05 23:15 | 26.42942 | -80.96230 | 23192 ft | 442 kts | 289° |
| 2026-05-05 23:15 | 26.43893 | -80.99456 | 23514 ft | 444 kts | 290° |
| 2026-05-05 23:15 | 26.44867 | -81.02769 | 23835 ft | 446 kts | 290° |
| 2026-05-05 23:15 | 26.45822 | -81.06016 | 24134 ft | 447 kts | 290° |
| 2026-05-05 23:16 | 26.46793 | -81.09327 | 24430 ft | 449 kts | 290° |
| 2026-05-05 23:16 | 26.47763 | -81.12635 | 24713 ft | 451 kts | 290° |
| 2026-05-05 23:16 | 26.48735 | -81.15952 | 24987 ft | 452 kts | 290° |
| 2026-05-05 23:16 | 26.49725 | -81.19324 | 25295 ft | 453 kts | 290° |
| 2026-05-05 23:17 | 26.50697 | -81.22649 | 25691 ft | 451 kts | 290° |
| 2026-05-05 23:17 | 26.51660 | -81.25950 | 26135 ft | 449 kts | 290° |
| 2026-05-05 23:17 | 26.52627 | -81.29263 | 26552 ft | 447 kts | 290° |
| 2026-05-05 23:17 | 26.53579 | -81.32527 | 26957 ft | 446 kts | 290° |
| 2026-05-05 23:18 | 26.54527 | -81.35780 | 27383 ft | 444 kts | 290° |
| 2026-05-05 23:18 | 26.55484 | -81.39065 | 27815 ft | 442 kts | 290° |
| 2026-05-05 23:18 | 26.56427 | -81.42304 | 28006 ft | 441 kts | 290° |
| 2026-05-05 23:18 | 26.57379 | -81.45585 | 28012 ft | 440 kts | 291° |
| 2026-05-05 23:19 | 26.59264 | -81.52078 | 28015 ft | 441 kts | 291° |
| 2026-05-05 23:19 | 26.61143 | -81.58561 | 28017 ft | 441 kts | 290° |
| 2026-05-05 23:20 | 26.63026 | -81.65072 | 28019 ft | 441 kts | 290° |
| 2026-05-05 23:20 | 26.64904 | -81.71581 | 28020 ft | 441 kts | 290° |
| 2026-05-05 23:21 | 26.66781 | -81.78097 | 28020 ft | 441 kts | 290° |
| 2026-05-05 23:21 | 26.68646 | -81.84586 | 28021 ft | 440 kts | 290° |
| 2026-05-05 23:22 | 26.70515 | -81.91105 | 28021 ft | 440 kts | 290° |
| 2026-05-05 23:22 | 26.72382 | -81.97623 | 28019 ft | 440 kts | 290° |
| 2026-05-05 23:23 | 26.74235 | -82.04108 | 28023 ft | 439 kts | 290° |
| 2026-05-05 23:23 | 26.76082 | -82.10586 | 28017 ft | 440 kts | 290° |
| 2026-05-05 23:24 | 26.77946 | -82.17128 | 28016 ft | 441 kts | 290° |
| 2026-05-05 23:24 | 26.79798 | -82.23653 | 28021 ft | 441 kts | 290° |
| 2026-05-05 23:25 | 26.81648 | -82.30164 | 28016 ft | 441 kts | 290° |
| 2026-05-05 23:25 | 26.83492 | -82.36686 | 28020 ft | 440 kts | 290° |
| 2026-05-05 23:26 | 26.85325 | -82.43184 | 28018 ft | 440 kts | 290° |
| 2026-05-05 23:26 | 26.87166 | -82.49705 | 28016 ft | 440 kts | 290° |
| 2026-05-05 23:27 | 26.89010 | -82.56257 | 28021 ft | 440 kts | 290° |
| 2026-05-05 23:27 | 26.90832 | -82.62747 | 28017 ft | 440 kts | 290° |
| 2026-05-05 23:28 | 26.92669 | -82.69308 | 28018 ft | 440 kts | 290° |
| 2026-05-05 23:28 | 26.94495 | -82.75831 | 28018 ft | 441 kts | 290° |
| 2026-05-05 23:29 | 26.96317 | -82.82355 | 28018 ft | 442 kts | 290° |
| 2026-05-05 23:29 | 26.98154 | -82.88942 | 28017 ft | 441 kts | 290° |
| 2026-05-05 23:30 | 26.99968 | -82.95472 | 28015 ft | 441 kts | 290° |
| 2026-05-05 23:30 | 27.01777 | -83.01994 | 28019 ft | 440 kts | 290° |
| 2026-05-05 23:31 | 27.03586 | -83.08527 | 28021 ft | 439 kts | 290° |
| 2026-05-05 23:31 | 27.05401 | -83.15086 | 28022 ft | 440 kts | 290° |
| 2026-05-05 23:32 | 27.07201 | -83.21606 | 28023 ft | 440 kts | 289° |
| 2026-05-05 23:32 | 27.09008 | -83.28172 | 28023 ft | 440 kts | 289° |
| 2026-05-05 23:33 | 27.10792 | -83.34677 | 28027 ft | 439 kts | 290° |
| 2026-05-05 23:33 | 27.12600 | -83.41261 | 28028 ft | 441 kts | 289° |
| 2026-05-05 23:34 | 27.14388 | -83.47792 | 28029 ft | 442 kts | 289° |
| 2026-05-05 23:34 | 27.16194 | -83.54407 | 28029 ft | 442 kts | 290° |
| 2026-05-05 23:35 | 27.17981 | -83.60958 | 28032 ft | 442 kts | 289° |
| 2026-05-05 23:35 | 27.19781 | -83.67583 | 28035 ft | 443 kts | 289° |
| 2026-05-05 23:36 | 27.21570 | -83.74179 | 28036 ft | 442 kts | 289° |
| 2026-05-05 23:36 | 27.23346 | -83.80730 | 28036 ft | 441 kts | 289° |
| 2026-05-05 23:37 | 27.25129 | -83.87326 | 28038 ft | 442 kts | 289° |
| 2026-05-05 23:37 | 27.26909 | -83.93921 | 28039 ft | 442 kts | 289° |
| 2026-05-05 23:38 | 27.28680 | -84.00500 | 28040 ft | 443 kts | 289° |
| 2026-05-05 23:38 | 27.30458 | -84.07118 | 28039 ft | 442 kts | 289° |
| 2026-05-05 23:39 | 27.32224 | -84.13711 | 28040 ft | 441 kts | 289° |
| 2026-05-05 23:39 | 27.33980 | -84.20268 | 28039 ft | 442 kts | 289° |
| 2026-05-05 23:40 | 27.35744 | -84.26877 | 28041 ft | 442 kts | 289° |
| 2026-05-05 23:40 | 27.37504 | -84.33482 | 28040 ft | 442 kts | 289° |
| 2026-05-05 23:41 | 27.39262 | -84.40092 | 28036 ft | 441 kts | 289° |
| 2026-05-05 23:41 | 27.41006 | -84.46669 | 28035 ft | 441 kts | 289° |
| 2026-05-05 23:42 | 27.42754 | -84.53272 | 28030 ft | 441 kts | 288° |
| 2026-05-05 23:42 | 27.44496 | -84.59866 | 28029 ft | 441 kts | 289° |
| 2026-05-05 23:43 | 27.46242 | -84.66492 | 28029 ft | 440 kts | 288° |
| 2026-05-05 23:43 | 27.47976 | -84.73090 | 28029 ft | 440 kts | 288° |
| 2026-05-05 23:44 | 27.49564 | -84.79709 | 28024 ft | 440 kts | 284° |
| 2026-05-05 23:44 | 27.50788 | -84.86453 | 28025 ft | 440 kts | 283° |
| 2026-05-05 23:45 | 27.51982 | -84.93198 | 28024 ft | 441 kts | 283° |
| 2026-05-05 23:45 | 27.53173 | -84.99968 | 28023 ft | 441 kts | 283° |
| 2026-05-05 23:46 | 27.54360 | -85.06739 | 28020 ft | 442 kts | 283° |
| 2026-05-05 23:46 | 27.55542 | -85.13498 | 28019 ft | 441 kts | 283° |
| 2026-05-05 23:47 | 27.56723 | -85.20267 | 28020 ft | 441 kts | 283° |
| 2026-05-05 23:47 | 27.57897 | -85.27023 | 28019 ft | 441 kts | 283° |
| 2026-05-05 23:48 | 27.59184 | -85.33746 | 28022 ft | 441 kts | 286° |
| 2026-05-05 23:48 | 27.60971 | -85.40350 | 28020 ft | 439 kts | 290° |
| 2026-05-05 23:49 | 27.62910 | -85.46839 | 28021 ft | 440 kts | 290° |
| 2026-05-05 23:49 | 27.64872 | -85.53388 | 28021 ft | 440 kts | 290° |
| 2026-05-05 23:50 | 27.66817 | -85.59897 | 28019 ft | 440 kts | 290° |
| 2026-05-05 23:50 | 27.68773 | -85.66451 | 28022 ft | 441 kts | 290° |
| 2026-05-05 23:51 | 27.70711 | -85.72963 | 28019 ft | 441 kts | 290° |
| 2026-05-05 23:51 | 27.72663 | -85.79527 | 28023 ft | 440 kts | 290° |
| 2026-05-05 23:52 | 27.73631 | -85.82791 | 27893 ft | 441 kts | 290° |
| 2026-05-05 23:52 | 27.74597 | -85.86049 | 27746 ft | 441 kts | 290° |
| 2026-05-05 23:52 | 27.75573 | -85.89341 | 27594 ft | 441 kts | 290° |
| 2026-05-05 23:52 | 27.76539 | -85.92609 | 27443 ft | 442 kts | 290° |
| 2026-05-05 23:53 | 27.77517 | -85.95918 | 27292 ft | 443 kts | 290° |
| 2026-05-05 23:53 | 27.78485 | -85.99194 | 27140 ft | 443 kts | 290° |
| 2026-05-05 23:53 | 27.79454 | -86.02477 | 26994 ft | 444 kts | 290° |
| 2026-05-05 23:53 | 27.80427 | -86.05777 | 26845 ft | 444 kts | 290° |
| 2026-05-05 23:54 | 27.81396 | -86.09071 | 26698 ft | 445 kts | 290° |
| 2026-05-05 23:54 | 27.82380 | -86.12416 | 26546 ft | 444 kts | 290° |
| 2026-05-05 23:54 | 27.83350 | -86.15719 | 26398 ft | 445 kts | 290° |
| 2026-05-05 23:54 | 27.84324 | -86.19034 | 26252 ft | 445 kts | 290° |
| 2026-05-05 23:55 | 27.85285 | -86.22309 | 26104 ft | 446 kts | 290° |
| 2026-05-05 23:55 | 27.86256 | -86.25624 | 26023 ft | 446 kts | 290° |
| 2026-05-05 23:55 | 27.87235 | -86.28970 | 26020 ft | 446 kts | 290° |
| 2026-05-05 23:55 | 27.88206 | -86.32285 | 26019 ft | 446 kts | 290° |
| 2026-05-05 23:56 | 27.89171 | -86.35587 | 26017 ft | 446 kts | 290° |
| 2026-05-05 23:56 | 27.90145 | -86.38927 | 26015 ft | 446 kts | 290° |
| 2026-05-05 23:56 | 27.91116 | -86.42258 | 26015 ft | 447 kts | 290° |
| 2026-05-05 23:56 | 27.92088 | -86.45594 | 26014 ft | 447 kts | 290° |
| 2026-05-05 23:57 | 27.93057 | -86.48925 | 26013 ft | 447 kts | 290° |
| 2026-05-05 23:57 | 27.94020 | -86.52245 | 26010 ft | 447 kts | 290° |
| 2026-05-05 23:57 | 27.94986 | -86.55570 | 26011 ft | 447 kts | 290° |
| 2026-05-05 23:57 | 27.95951 | -86.58892 | 26011 ft | 447 kts | 290° |
| 2026-05-05 23:58 | 27.96918 | -86.62231 | 26008 ft | 447 kts | 290° |
| 2026-05-05 23:58 | 27.97889 | -86.65588 | 26114 ft | 451 kts | 290° |
| 2026-05-05 23:58 | 27.98854 | -86.68926 | 26566 ft | 448 kts | 289° |
| 2026-05-05 23:58 | 27.99809 | -86.72229 | 27100 ft | 444 kts | 289° |
| 2026-05-05 23:59 | 28.00760 | -86.75530 | 27599 ft | 441 kts | 289° |
| 2026-05-05 23:59 | 28.01722 | -86.78812 | 28069 ft | 439 kts | 290° |
| 2026-05-05 23:59 | 28.02691 | -86.82056 | 28549 ft | 436 kts | 290° |
| 2026-05-05 23:59 | 28.03663 | -86.85305 | 29014 ft | 434 kts | 289° |
| 2026-05-06 00:00 | 28.04628 | -86.88533 | 29481 ft | 433 kts | 290° |
| 2026-05-06 00:00 | 28.05582 | -86.91736 | 29977 ft | 430 kts | 289° |
| 2026-05-06 00:00 | 28.06534 | -86.94937 | 30499 ft | 427 kts | 290° |
| 2026-05-06 00:00 | 28.07471 | -86.98089 | 31006 ft | 424 kts | 290° |
| 2026-05-06 00:01 | 28.08402 | -87.01229 | 31498 ft | 422 kts | 289° |
| 2026-05-06 00:01 | 28.09329 | -87.04355 | 31972 ft | 419 kts | 289° |
| 2026-05-06 00:01 | 28.10250 | -87.07464 | 32442 ft | 417 kts | 289° |
| 2026-05-06 00:01 | 28.11172 | -87.10584 | 32903 ft | 414 kts | 289° |
| 2026-05-06 00:02 | 28.12081 | -87.13657 | 33385 ft | 412 kts | 289° |
| 2026-05-06 00:02 | 28.12977 | -87.16695 | 33854 ft | 410 kts | 289° |
| 2026-05-06 00:02 | 28.13883 | -87.19775 | 34305 ft | 409 kts | 290° |
| 2026-05-06 00:02 | 28.14771 | -87.22787 | 34741 ft | 407 kts | 289° |
| 2026-05-06 00:03 | 28.15663 | -87.25815 | 35171 ft | 405 kts | 289° |
| 2026-05-06 00:03 | 28.16547 | -87.28821 | 35567 ft | 404 kts | 290° |
| 2026-05-06 00:03 | 28.17436 | -87.31847 | 35939 ft | 403 kts | 290° |
| 2026-05-06 00:03 | 28.18321 | -87.34854 | 36007 ft | 403 kts | 289° |
| 2026-05-06 00:04 | 28.20080 | -87.40860 | 36018 ft | 402 kts | 289° |
| 2026-05-06 00:04 | 28.21842 | -87.46878 | 36014 ft | 402 kts | 289° |
| 2026-05-06 00:05 | 28.24471 | -87.55880 | 36015 ft | 403 kts | 289° |
| 2026-05-06 00:06 | 28.26222 | -87.61891 | 36015 ft | 403 kts | 289° |
| 2026-05-06 00:06 | 28.27978 | -87.67936 | 36010 ft | 403 kts | 289° |
| 2026-05-06 00:07 | 28.29733 | -87.73983 | 36010 ft | 405 kts | 289° |
| 2026-05-06 00:07 | 28.31485 | -87.80035 | 36011 ft | 405 kts | 289° |
| 2026-05-06 00:08 | 28.33244 | -87.86111 | 36009 ft | 406 kts | 289° |
| 2026-05-06 00:08 | 28.34989 | -87.92156 | 36003 ft | 406 kts | 289° |
| 2026-05-06 00:09 | 28.36739 | -87.98236 | 36003 ft | 406 kts | 289° |
| 2026-05-06 00:09 | 28.38619 | -88.04247 | 36007 ft | 405 kts | 292° |
| 2026-05-06 00:10 | 28.40870 | -88.10098 | 36003 ft | 405 kts | 294° |
| 2026-05-06 00:10 | 28.43157 | -88.15932 | 35998 ft | 404 kts | 294° |
| 2026-05-06 00:11 | 28.45433 | -88.21738 | 36001 ft | 404 kts | 294° |
| 2026-05-06 00:11 | 28.47715 | -88.27567 | 35998 ft | 404 kts | 294° |
| 2026-05-06 00:12 | 28.49984 | -88.33375 | 35998 ft | 404 kts | 294° |
| 2026-05-06 00:12 | 28.52260 | -88.39208 | 36001 ft | 404 kts | 294° |
| 2026-05-06 00:13 | 28.54547 | -88.45077 | 35997 ft | 404 kts | 294° |
| 2026-05-06 00:13 | 28.56804 | -88.50878 | 35997 ft | 405 kts | 293° |
| 2026-05-06 00:14 | 28.59069 | -88.56703 | 35995 ft | 404 kts | 293° |
| 2026-05-06 00:14 | 28.61336 | -88.62552 | 35995 ft | 404 kts | 293° |
| 2026-05-06 00:15 | 28.63596 | -88.68387 | 35993 ft | 404 kts | 293° |
| 2026-05-06 00:15 | 28.65871 | -88.74267 | 35974 ft | 404 kts | 293° |
| 2026-05-06 00:16 | 28.68113 | -88.80075 | 35976 ft | 404 kts | 293° |
| 2026-05-06 00:16 | 28.70365 | -88.85918 | 35975 ft | 404 kts | 293° |
| 2026-05-06 00:17 | 28.72622 | -88.91775 | 35978 ft | 404 kts | 292° |
| 2026-05-06 00:17 | 28.74869 | -88.97625 | 35981 ft | 404 kts | 292° |
| 2026-05-06 00:18 | 28.77111 | -89.03468 | 35982 ft | 404 kts | 292° |
| 2026-05-06 00:18 | 28.79365 | -89.09351 | 35981 ft | 404 kts | 292° |
| 2026-05-06 00:19 | 28.81599 | -89.15189 | 35980 ft | 404 kts | 292° |
| 2026-05-06 00:19 | 28.83849 | -89.21081 | 35980 ft | 404 kts | 292° |
| 2026-05-06 00:20 | 28.86087 | -89.26952 | 35978 ft | 404 kts | 292° |
| 2026-05-06 00:20 | 28.88313 | -89.32797 | 35975 ft | 404 kts | 292° |
| 2026-05-06 00:21 | 28.90540 | -89.38655 | 35975 ft | 404 kts | 292° |
| 2026-05-06 00:21 | 28.92781 | -89.44562 | 35974 ft | 404 kts | 292° |
| 2026-05-06 00:22 | 28.95002 | -89.50419 | 35972 ft | 404 kts | 292° |
| 2026-05-06 00:22 | 28.97228 | -89.56306 | 35972 ft | 404 kts | 292° |
| 2026-05-06 00:23 | 28.99439 | -89.62155 | 35968 ft | 404 kts | 292° |
| 2026-05-06 00:23 | 29.01647 | -89.68014 | 35970 ft | 403 kts | 291° |
| 2026-05-06 00:24 | 29.03860 | -89.73894 | 35965 ft | 404 kts | 291° |
| 2026-05-06 00:24 | 29.06077 | -89.79788 | 35965 ft | 404 kts | 291° |
| 2026-05-06 00:25 | 29.08282 | -89.85663 | 35966 ft | 404 kts | 291° |
| 2026-05-06 00:25 | 29.10499 | -89.91582 | 35965 ft | 404 kts | 291° |
| 2026-05-06 00:26 | 29.12700 | -89.97469 | 35963 ft | 403 kts | 291° |
| 2026-05-06 00:26 | 29.14893 | -90.03342 | 35959 ft | 403 kts | 291° |
| 2026-05-06 00:27 | 29.16852 | -90.09292 | 35959 ft | 402 kts | 287° |
| 2026-05-06 00:27 | 29.18329 | -90.15467 | 35956 ft | 402 kts | 282° |
| 2026-05-06 00:28 | 29.19422 | -90.21705 | 35957 ft | 402 kts | 281° |
| 2026-05-06 00:28 | 29.20488 | -90.27969 | 35955 ft | 402 kts | 281° |
| 2026-05-06 00:29 | 29.21549 | -90.34254 | 35956 ft | 402 kts | 281° |
| 2026-05-06 00:29 | 29.22600 | -90.40508 | 35962 ft | 401 kts | 281° |
| 2026-05-06 00:30 | 29.23642 | -90.46724 | 35956 ft | 401 kts | 281° |
| 2026-05-06 00:30 | 29.24688 | -90.53000 | 35958 ft | 402 kts | 281° |
| 2026-05-06 00:31 | 29.25734 | -90.59287 | 35957 ft | 402 kts | 281° |
| 2026-05-06 00:31 | 29.26774 | -90.65557 | 35957 ft | 403 kts | 280° |
| 2026-05-06 00:32 | 29.27810 | -90.71815 | 35961 ft | 402 kts | 280° |
| 2026-05-06 00:32 | 29.28849 | -90.78116 | 35957 ft | 403 kts | 280° |
| 2026-05-06 00:33 | 29.29879 | -90.84393 | 35958 ft | 402 kts | 280° |
| 2026-05-06 00:33 | 29.30907 | -90.90662 | 35955 ft | 403 kts | 280° |
| 2026-05-06 00:34 | 29.31937 | -90.96970 | 35955 ft | 403 kts | 280° |
| 2026-05-06 00:34 | 29.32961 | -91.03268 | 35955 ft | 403 kts | 280° |
| 2026-05-06 00:35 | 29.33986 | -91.09575 | 35953 ft | 404 kts | 280° |
| 2026-05-06 00:35 | 29.35003 | -91.15858 | 35950 ft | 403 kts | 280° |
| 2026-05-06 00:36 | 29.36021 | -91.22165 | 35945 ft | 403 kts | 280° |
| 2026-05-06 00:36 | 29.37034 | -91.28471 | 35943 ft | 403 kts | 280° |
| 2026-05-06 00:37 | 29.38043 | -91.34759 | 35937 ft | 403 kts | 280° |
| 2026-05-06 00:37 | 29.39051 | -91.41065 | 35934 ft | 403 kts | 279° |
| 2026-05-06 00:38 | 29.40051 | -91.47341 | 35934 ft | 402 kts | 280° |
| 2026-05-06 00:38 | 29.41050 | -91.53638 | 35929 ft | 402 kts | 279° |
| 2026-05-06 00:39 | 29.42046 | -91.59919 | 35925 ft | 401 kts | 280° |
| 2026-05-06 00:39 | 29.43039 | -91.66215 | 35930 ft | 402 kts | 279° |
| 2026-05-06 00:40 | 29.44025 | -91.72484 | 35922 ft | 401 kts | 279° |
| 2026-05-06 00:40 | 29.45008 | -91.78759 | 35919 ft | 401 kts | 279° |
| 2026-05-06 00:41 | 29.45995 | -91.85066 | 35916 ft | 401 kts | 279° |
| 2026-05-06 00:41 | 29.46972 | -91.91342 | 35912 ft | 400 kts | 279° |
| 2026-05-06 00:42 | 29.47943 | -91.97594 | 35911 ft | 400 kts | 279° |
| 2026-05-06 00:42 | 29.48915 | -92.03870 | 35912 ft | 400 kts | 279° |
| 2026-05-06 00:43 | 29.49882 | -92.10133 | 35917 ft | 400 kts | 279° |
| 2026-05-06 00:43 | 29.50848 | -92.16418 | 35919 ft | 400 kts | 279° |
| 2026-05-06 00:44 | 29.51806 | -92.22661 | 35917 ft | 400 kts | 279° |
| 2026-05-06 00:44 | 29.52765 | -92.28937 | 35916 ft | 400 kts | 279° |
| 2026-05-06 00:45 | 29.53720 | -92.35203 | 35914 ft | 400 kts | 279° |
| 2026-05-06 00:45 | 29.54672 | -92.41471 | 35914 ft | 400 kts | 279° |
| 2026-05-06 00:46 | 29.55627 | -92.47782 | 35913 ft | 400 kts | 278° |
| 2026-05-06 00:46 | 29.56568 | -92.54031 | 35909 ft | 400 kts | 279° |
| 2026-05-06 00:47 | 29.57510 | -92.60295 | 35906 ft | 399 kts | 279° |
| 2026-05-06 00:47 | 29.58449 | -92.66563 | 35909 ft | 399 kts | 278° |
| 2026-05-06 00:48 | 29.59386 | -92.72836 | 35901 ft | 399 kts | 278° |
| 2026-05-06 00:48 | 29.60317 | -92.79092 | 35897 ft | 399 kts | 278° |
| 2026-05-06 00:49 | 29.61244 | -92.85335 | 35894 ft | 399 kts | 278° |
| 2026-05-06 00:49 | 29.62173 | -92.91616 | 35890 ft | 399 kts | 278° |
| 2026-05-06 00:50 | 29.63098 | -92.97899 | 35888 ft | 398 kts | 278° |
| 2026-05-06 00:50 | 29.64015 | -93.04147 | 35884 ft | 397 kts | 278° |
| 2026-05-06 00:51 | 29.64928 | -93.10375 | 35883 ft | 397 kts | 278° |
| 2026-05-06 00:51 | 29.65836 | -93.16602 | 35884 ft | 397 kts | 278° |
| 2026-05-06 00:52 | 29.66742 | -93.22841 | 35882 ft | 397 kts | 278° |
| 2026-05-06 00:52 | 29.67646 | -93.29085 | 35881 ft | 396 kts | 278° |
| 2026-05-06 00:53 | 29.68550 | -93.35333 | 35879 ft | 396 kts | 278° |
| 2026-05-06 00:53 | 29.69443 | -93.41542 | 35879 ft | 396 kts | 278° |
| 2026-05-06 00:54 | 29.70342 | -93.47803 | 35882 ft | 397 kts | 278° |
| 2026-05-06 00:54 | 29.71228 | -93.54014 | 35882 ft | 396 kts | 278° |
| 2026-05-06 00:55 | 29.72115 | -93.60249 | 35884 ft | 396 kts | 278° |
| 2026-05-06 00:55 | 29.73000 | -93.66479 | 35884 ft | 396 kts | 277° |
| 2026-05-06 00:56 | 29.73884 | -93.72747 | 35882 ft | 396 kts | 277° |
| 2026-05-06 00:56 | 29.74766 | -93.78979 | 35880 ft | 396 kts | 277° |
| 2026-05-06 00:57 | 29.75638 | -93.85199 | 35884 ft | 396 kts | 277° |
| 2026-05-06 00:57 | 29.76507 | -93.91402 | 35886 ft | 396 kts | 277° |
| 2026-05-06 00:58 | 29.77378 | -93.97648 | 35881 ft | 394 kts | 277° |
| 2026-05-06 00:58 | 29.78244 | -94.03882 | 35881 ft | 395 kts | 277° |
| 2026-05-06 00:59 | 29.79102 | -94.10077 | 35880 ft | 395 kts | 277° |
| 2026-05-06 00:59 | 29.79960 | -94.16303 | 35878 ft | 395 kts | 277° |
| 2026-05-06 01:00 | 29.80821 | -94.22565 | 35878 ft | 395 kts | 277° |
| 2026-05-06 01:00 | 29.81675 | -94.28790 | 35876 ft | 394 kts | 277° |
| 2026-05-06 01:01 | 29.82519 | -94.34988 | 35870 ft | 394 kts | 277° |
| 2026-05-06 01:01 | 29.83367 | -94.41213 | 35866 ft | 394 kts | 277° |
| 2026-05-06 01:02 | 29.84208 | -94.47417 | 35860 ft | 394 kts | 277° |
| 2026-05-06 01:02 | 29.85046 | -94.53619 | 35851 ft | 394 kts | 277° |
| 2026-05-06 01:03 | 29.85885 | -94.59866 | 35854 ft | 394 kts | 276° |
| 2026-05-06 01:03 | 29.86716 | -94.66071 | 35851 ft | 394 kts | 276° |
| 2026-05-06 01:04 | 29.87548 | -94.72292 | 35848 ft | 394 kts | 276° |
| 2026-05-06 01:04 | 29.88377 | -94.78526 | 35851 ft | 393 kts | 276° |
| 2026-05-06 01:05 | 29.89198 | -94.84724 | 35847 ft | 393 kts | 276° |
| 2026-05-06 01:05 | 29.90020 | -94.90945 | 35841 ft | 393 kts | 276° |
| 2026-05-06 01:06 | 29.90837 | -94.97156 | 35845 ft | 393 kts | 276° |
| 2026-05-06 01:06 | 29.91651 | -95.03361 | 35841 ft | 393 kts | 276° |
| 2026-05-06 01:07 | 29.92466 | -95.09604 | 35852 ft | 393 kts | 276° |
| 2026-05-06 01:07 | 29.93272 | -95.15801 | 35854 ft | 393 kts | 276° |
| 2026-05-06 01:08 | 29.94075 | -95.22005 | 35852 ft | 393 kts | 276° |
| 2026-05-06 01:08 | 29.94879 | -95.28246 | 35856 ft | 393 kts | 276° |
| 2026-05-06 01:09 | 29.95692 | -95.34472 | 35854 ft | 394 kts | 277° |
| 2026-05-06 01:09 | 29.96680 | -95.40662 | 35857 ft | 394 kts | 277° |
| 2026-05-06 01:10 | 29.97670 | -95.46829 | 35849 ft | 393 kts | 277° |
| 2026-05-06 01:10 | 29.98663 | -95.53028 | 35845 ft | 393 kts | 277° |
| 2026-05-06 01:11 | 29.99649 | -95.59203 | 35844 ft | 393 kts | 277° |
| 2026-05-06 01:11 | 30.00634 | -95.65401 | 35843 ft | 393 kts | 277° |
| 2026-05-06 01:12 | 30.01614 | -95.71567 | 35837 ft | 392 kts | 277° |
| 2026-05-06 01:12 | 30.02587 | -95.77733 | 35839 ft | 392 kts | 277° |
| 2026-05-06 01:13 | 30.03560 | -95.83904 | 35843 ft | 392 kts | 277° |
| 2026-05-06 01:13 | 30.04532 | -95.90093 | 35850 ft | 392 kts | 277° |
| 2026-05-06 01:14 | 30.05981 | -95.99339 | 35849 ft | 392 kts | 277° |
| 2026-05-06 01:14 | 30.06943 | -96.05522 | 35845 ft | 391 kts | 277° |
| 2026-05-06 01:15 | 30.07903 | -96.11694 | 35845 ft | 391 kts | 277° |
| 2026-05-06 01:15 | 30.08856 | -96.17853 | 35845 ft | 391 kts | 277° |
| 2026-05-06 01:16 | 30.09803 | -96.23977 | 35840 ft | 390 kts | 277° |
| 2026-05-06 01:16 | 30.10753 | -96.30145 | 35840 ft | 390 kts | 276° |
| 2026-05-06 01:17 | 30.11693 | -96.36276 | 35840 ft | 390 kts | 276° |
| 2026-05-06 01:17 | 30.12630 | -96.42428 | 35842 ft | 390 kts | 276° |
| 2026-05-06 01:18 | 30.13570 | -96.48576 | 35835 ft | 389 kts | 276° |
| 2026-05-06 01:18 | 30.14498 | -96.54694 | 35835 ft | 389 kts | 276° |
| 2026-05-06 01:19 | 30.15432 | -96.60869 | 35842 ft | 389 kts | 276° |
| 2026-05-06 01:19 | 30.16356 | -96.66991 | 35837 ft | 388 kts | 276° |
| 2026-05-06 01:20 | 30.17279 | -96.73126 | 35824 ft | 388 kts | 276° |
| 2026-05-06 01:20 | 30.18199 | -96.79250 | 35821 ft | 388 kts | 276° |
| 2026-05-06 01:21 | 30.19114 | -96.85375 | 35824 ft | 389 kts | 275° |
| 2026-05-06 01:21 | 30.20030 | -96.91532 | 35826 ft | 389 kts | 275° |
| 2026-05-06 01:22 | 30.20937 | -96.97637 | 35830 ft | 388 kts | 276° |
| 2026-05-06 01:22 | 30.21851 | -97.03803 | 35829 ft | 388 kts | 275° |
| 2026-05-06 01:23 | 30.22751 | -97.09906 | 35823 ft | 387 kts | 275° |
| 2026-05-06 01:23 | 30.23654 | -97.16050 | 35821 ft | 388 kts | 275° |
| 2026-05-06 01:24 | 30.24552 | -97.22180 | 35818 ft | 388 kts | 275° |
| 2026-05-06 01:24 | 30.25443 | -97.28283 | 35817 ft | 387 kts | 275° |
| 2026-05-06 01:25 | 30.26331 | -97.34382 | 35818 ft | 387 kts | 275° |
| 2026-05-06 01:25 | 30.27221 | -97.40533 | 35820 ft | 386 kts | 275° |
| 2026-05-06 01:26 | 30.28099 | -97.46596 | 35821 ft | 385 kts | 275° |
| 2026-05-06 01:26 | 30.28974 | -97.52686 | 35825 ft | 384 kts | 275° |
| 2026-05-06 01:27 | 30.29847 | -97.58765 | 35827 ft | 384 kts | 275° |
| 2026-05-06 01:27 | 30.30718 | -97.64841 | 35826 ft | 385 kts | 275° |
| 2026-05-06 01:28 | 30.31586 | -97.70933 | 35834 ft | 384 kts | 274° |
| 2026-05-06 01:28 | 30.32455 | -97.77053 | 35826 ft | 384 kts | 274° |
| 2026-05-06 01:29 | 30.33312 | -97.83117 | 35826 ft | 383 kts | 275° |
| 2026-05-06 01:29 | 30.34171 | -97.89199 | 35824 ft | 384 kts | 274° |
| 2026-05-06 01:30 | 30.35021 | -97.95242 | 35829 ft | 383 kts | 274° |
| 2026-05-06 01:30 | 30.35871 | -98.01311 | 35835 ft | 383 kts | 274° |
| 2026-05-06 01:31 | 30.36724 | -98.07415 | 35836 ft | 383 kts | 274° |
| 2026-05-06 01:31 | 30.37567 | -98.13470 | 35836 ft | 382 kts | 274° |
| 2026-05-06 01:32 | 30.38409 | -98.19553 | 35598 ft | 383 kts | 274° |
| 2026-05-06 01:32 | 30.38832 | -98.22596 | 35374 ft | 384 kts | 274° |
| 2026-05-06 01:32 | 30.39250 | -98.25624 | 35151 ft | 383 kts | 274° |
| 2026-05-06 01:33 | 30.39667 | -98.28660 | 34927 ft | 384 kts | 274° |
| 2026-05-06 01:33 | 30.40088 | -98.31708 | 34704 ft | 384 kts | 273° |
| 2026-05-06 01:33 | 30.40502 | -98.34743 | 34485 ft | 385 kts | 274° |
| 2026-05-06 01:33 | 30.40924 | -98.37824 | 34261 ft | 386 kts | 274° |
| 2026-05-06 01:34 | 30.41342 | -98.40885 | 34039 ft | 386 kts | 274° |
| 2026-05-06 01:34 | 30.41762 | -98.43956 | 33818 ft | 387 kts | 273° |
| 2026-05-06 01:34 | 30.42178 | -98.46988 | 33596 ft | 388 kts | 273° |
| 2026-05-06 01:34 | 30.42600 | -98.50101 | 33373 ft | 389 kts | 274° |
| 2026-05-06 01:35 | 30.43017 | -98.53165 | 33153 ft | 389 kts | 273° |
| 2026-05-06 01:35 | 30.43437 | -98.56271 | 32940 ft | 390 kts | 273° |
| 2026-05-06 01:35 | 30.43851 | -98.59341 | 32733 ft | 390 kts | 273° |
| 2026-05-06 01:35 | 30.44273 | -98.62461 | 32522 ft | 391 kts | 273° |
| 2026-05-06 01:36 | 30.44687 | -98.65550 | 32318 ft | 391 kts | 273° |
| 2026-05-06 01:36 | 30.45110 | -98.68677 | 32112 ft | 392 kts | 273° |
| 2026-05-06 01:36 | 30.45528 | -98.71783 | 31902 ft | 393 kts | 272° |
| 2026-05-06 01:36 | 30.45943 | -98.74894 | 31696 ft | 393 kts | 273° |
| 2026-05-06 01:37 | 30.46362 | -98.78024 | 31490 ft | 394 kts | 273° |
| 2026-05-06 01:37 | 30.46779 | -98.81148 | 31284 ft | 395 kts | 273° |
| 2026-05-06 01:37 | 30.47201 | -98.84313 | 31075 ft | 395 kts | 272° |
| 2026-05-06 01:37 | 30.47614 | -98.87418 | 30871 ft | 395 kts | 273° |
| 2026-05-06 01:38 | 30.48032 | -98.90562 | 30665 ft | 397 kts | 273° |
| 2026-05-06 01:38 | 30.48453 | -98.93742 | 30457 ft | 397 kts | 273° |
| 2026-05-06 01:38 | 30.48872 | -98.96890 | 30251 ft | 399 kts | 273° |
| 2026-05-06 01:38 | 30.49290 | -99.00050 | 30048 ft | 399 kts | 273° |
| 2026-05-06 01:39 | 30.49710 | -99.03244 | 29884 ft | 399 kts | 273° |
| 2026-05-06 01:39 | 30.50124 | -99.06387 | 29878 ft | 400 kts | 273° |
| 2026-05-06 01:39 | 30.50957 | -99.12741 | 29876 ft | 400 kts | 273° |
| 2026-05-06 01:40 | 30.51793 | -99.19115 | 29877 ft | 401 kts | 273° |
| 2026-05-06 01:40 | 30.52624 | -99.25496 | 29880 ft | 400 kts | 272° |
| 2026-05-06 01:41 | 30.53446 | -99.31838 | 29882 ft | 400 kts | 272° |
| 2026-05-06 01:41 | 30.54272 | -99.38223 | 29885 ft | 400 kts | 272° |
| 2026-05-06 01:42 | 30.55089 | -99.44587 | 29888 ft | 400 kts | 273° |
| 2026-05-06 01:42 | 30.55910 | -99.50968 | 29893 ft | 401 kts | 272° |
| 2026-05-06 01:43 | 30.56719 | -99.57320 | 29894 ft | 401 kts | 272° |
| 2026-05-06 01:43 | 30.57536 | -99.63747 | 29886 ft | 401 kts | 272° |
| 2026-05-06 01:44 | 30.58339 | -99.70100 | 29882 ft | 400 kts | 272° |
| 2026-05-06 01:44 | 30.59145 | -99.76495 | 29880 ft | 401 kts | 272° |
| 2026-05-06 01:45 | 30.60102 | -99.82858 | 29885 ft | 403 kts | 275° |
| 2026-05-06 01:45 | 30.61437 | -99.89228 | 29891 ft | 406 kts | 277° |
| 2026-05-06 01:46 | 30.62791 | -99.95553 | 29905 ft | 405 kts | 277° |
| 2026-05-06 01:46 | 30.64147 | -100.01884 | 29914 ft | 405 kts | 277° |
| 2026-05-06 01:47 | 30.65502 | -100.08218 | 29916 ft | 406 kts | 277° |
| 2026-05-06 01:47 | 30.66856 | -100.14568 | 29922 ft | 407 kts | 277° |
| 2026-05-06 01:48 | 30.68214 | -100.20955 | 29865 ft | 406 kts | 277° |
| 2026-05-06 01:48 | 30.68882 | -100.24101 | 29659 ft | 406 kts | 277° |
| 2026-05-06 01:48 | 30.69558 | -100.27291 | 29448 ft | 407 kts | 277° |
| 2026-05-06 01:49 | 30.70237 | -100.30489 | 29245 ft | 408 kts | 277° |
| 2026-05-06 01:49 | 30.70911 | -100.33684 | 29035 ft | 409 kts | 277° |
| 2026-05-06 01:49 | 30.71586 | -100.36877 | 28830 ft | 409 kts | 277° |
| 2026-05-06 01:49 | 30.72261 | -100.40080 | 28639 ft | 410 kts | 277° |
| 2026-05-06 01:50 | 30.72944 | -100.43318 | 28449 ft | 411 kts | 277° |
| 2026-05-06 01:50 | 30.73618 | -100.46520 | 28258 ft | 412 kts | 277° |
| 2026-05-06 01:50 | 30.74301 | -100.49757 | 28059 ft | 414 kts | 277° |
| 2026-05-06 01:50 | 30.74982 | -100.53004 | 27930 ft | 415 kts | 277° |
| 2026-05-06 01:51 | 30.75577 | -100.55840 | 27926 ft | 416 kts | 277° |
| 2026-05-06 01:51 | 30.76262 | -100.59111 | 27922 ft | 417 kts | 277° |
| 2026-05-06 01:51 | 30.76941 | -100.62362 | 27925 ft | 416 kts | 277° |
| 2026-05-06 01:51 | 30.77631 | -100.65661 | 27932 ft | 416 kts | 277° |
| 2026-05-06 01:52 | 30.78311 | -100.68912 | 27923 ft | 417 kts | 277° |
| 2026-05-06 01:52 | 30.78992 | -100.72182 | 27916 ft | 417 kts | 276° |
| 2026-05-06 01:52 | 30.79668 | -100.75433 | 27920 ft | 417 kts | 277° |
| 2026-05-06 01:52 | 30.80343 | -100.78684 | 27926 ft | 417 kts | 276° |
| 2026-05-06 01:53 | 30.81026 | -100.81974 | 27931 ft | 418 kts | 276° |
| 2026-05-06 01:53 | 30.81709 | -100.85274 | 27926 ft | 418 kts | 277° |
| 2026-05-06 01:53 | 30.82383 | -100.88539 | 27928 ft | 416 kts | 277° |
| 2026-05-06 01:53 | 30.83055 | -100.91780 | 27928 ft | 416 kts | 277° |
| 2026-05-06 01:54 | 30.83728 | -100.95042 | 27934 ft | 417 kts | 277° |
| 2026-05-06 01:54 | 30.84411 | -100.98346 | 27929 ft | 418 kts | 276° |
| 2026-05-06 01:54 | 30.85079 | -101.01590 | 27930 ft | 416 kts | 277° |
| 2026-05-06 01:54 | 30.85753 | -101.04874 | 27930 ft | 416 kts | 277° |
| 2026-05-06 01:55 | 30.86424 | -101.08137 | 27933 ft | 415 kts | 277° |
| 2026-05-06 01:55 | 30.87090 | -101.11382 | 27935 ft | 416 kts | 276° |
| 2026-05-06 01:55 | 30.87758 | -101.14638 | 27934 ft | 416 kts | 276° |
| 2026-05-06 01:55 | 30.88428 | -101.17924 | 27943 ft | 416 kts | 276° |
| 2026-05-06 01:56 | 30.89095 | -101.21195 | 27941 ft | 415 kts | 277° |
| 2026-05-06 01:56 | 30.89750 | -101.24414 | 27939 ft | 414 kts | 277° |
| 2026-05-06 01:56 | 30.90412 | -101.27666 | 27938 ft | 414 kts | 277° |
| 2026-05-06 01:56 | 30.91079 | -101.30946 | 27946 ft | 414 kts | 276° |
| 2026-05-06 01:57 | 30.91736 | -101.34180 | 27944 ft | 414 kts | 277° |
| 2026-05-06 01:57 | 30.92395 | -101.37440 | 27957 ft | 413 kts | 277° |
| 2026-05-06 01:57 | 30.93056 | -101.40706 | 27945 ft | 413 kts | 276° |
| 2026-05-06 01:57 | 30.93712 | -101.43949 | 27948 ft | 414 kts | 277° |
| 2026-05-06 01:58 | 30.94362 | -101.47175 | 27944 ft | 413 kts | 277° |
| 2026-05-06 01:58 | 30.95024 | -101.50451 | 27952 ft | 413 kts | 276° |
| 2026-05-06 01:58 | 30.95678 | -101.53687 | 27955 ft | 414 kts | 276° |
| 2026-05-06 01:58 | 30.96330 | -101.56946 | 27949 ft | 414 kts | 276° |
| 2026-05-06 01:59 | 30.96978 | -101.60177 | 27950 ft | 414 kts | 277° |
| 2026-05-06 01:59 | 30.97639 | -101.63473 | 27948 ft | 414 kts | 277° |
| 2026-05-06 01:59 | 30.98282 | -101.66697 | 27951 ft | 413 kts | 276° |
| 2026-05-06 01:59 | 30.98943 | -101.69984 | 27957 ft | 413 kts | 276° |
| 2026-05-06 02:00 | 30.99591 | -101.73222 | 27948 ft | 412 kts | 276° |
| 2026-05-06 02:00 | 31.00238 | -101.76472 | 27954 ft | 412 kts | 276° |
| 2026-05-06 02:00 | 31.00886 | -101.79725 | 27941 ft | 412 kts | 276° |
| 2026-05-06 02:00 | 31.01526 | -101.82955 | 27937 ft | 411 kts | 276° |
| 2026-05-06 02:01 | 31.02167 | -101.86179 | 27938 ft | 410 kts | 276° |
| 2026-05-06 02:01 | 31.02811 | -101.89426 | 27939 ft | 411 kts | 276° |
| 2026-05-06 02:01 | 31.03452 | -101.92660 | 27939 ft | 411 kts | 276° |
| 2026-05-06 02:01 | 31.04089 | -101.95878 | 27927 ft | 411 kts | 276° |
| 2026-05-06 02:02 | 31.04728 | -101.99105 | 27929 ft | 411 kts | 276° |
| 2026-05-06 02:02 | 31.05368 | -102.02362 | 27924 ft | 411 kts | 276° |
| 2026-05-06 02:02 | 31.06008 | -102.05605 | 27918 ft | 411 kts | 276° |
| 2026-05-06 02:02 | 31.06643 | -102.08830 | 27918 ft | 411 kts | 276° |
| 2026-05-06 02:03 | 31.07283 | -102.12076 | 27920 ft | 411 kts | 276° |
| 2026-05-06 02:03 | 31.07916 | -102.15299 | 27928 ft | 411 kts | 276° |
| 2026-05-06 02:03 | 31.08557 | -102.18571 | 27924 ft | 410 kts | 276° |
| 2026-05-06 02:03 | 31.09189 | -102.21802 | 27927 ft | 411 kts | 276° |
| 2026-05-06 02:04 | 31.09822 | -102.25046 | 27925 ft | 411 kts | 276° |
| 2026-05-06 02:04 | 31.10449 | -102.28274 | 27923 ft | 411 kts | 276° |
| 2026-05-06 02:04 | 31.11079 | -102.31509 | 27928 ft | 409 kts | 276° |
| 2026-05-06 02:04 | 31.11706 | -102.34729 | 27927 ft | 409 kts | 276° |
| 2026-05-06 02:05 | 31.12339 | -102.37985 | 27927 ft | 409 kts | 275° |
| 2026-05-06 02:05 | 31.12971 | -102.41228 | 27928 ft | 410 kts | 275° |
| 2026-05-06 02:05 | 31.13597 | -102.44459 | 27932 ft | 409 kts | 275° |
| 2026-05-06 02:05 | 31.14222 | -102.47689 | 27930 ft | 409 kts | 275° |
| 2026-05-06 02:06 | 31.14846 | -102.50920 | 27933 ft | 410 kts | 275° |
| 2026-05-06 02:06 | 31.15467 | -102.54134 | 27932 ft | 409 kts | 275° |
| 2026-05-06 02:06 | 31.16083 | -102.57345 | 27930 ft | 408 kts | 275° |
| 2026-05-06 02:06 | 31.16709 | -102.60608 | 27931 ft | 410 kts | 275° |
| 2026-05-06 02:07 | 31.17330 | -102.63842 | 27931 ft | 410 kts | 275° |
| 2026-05-06 02:07 | 31.17946 | -102.67068 | 27934 ft | 409 kts | 275° |
| 2026-05-06 02:07 | 31.18565 | -102.70302 | 27933 ft | 409 kts | 275° |
| 2026-05-06 02:07 | 31.19181 | -102.73526 | 27936 ft | 408 kts | 275° |
| 2026-05-06 02:08 | 31.19797 | -102.76756 | 27940 ft | 408 kts | 275° |
| 2026-05-06 02:08 | 31.20415 | -102.80002 | 27936 ft | 408 kts | 275° |
| 2026-05-06 02:08 | 31.21031 | -102.83225 | 27936 ft | 408 kts | 275° |
| 2026-05-06 02:08 | 31.21647 | -102.86468 | 27938 ft | 408 kts | 275° |
| 2026-05-06 02:09 | 31.22251 | -102.89658 | 27941 ft | 407 kts | 275° |
| 2026-05-06 02:09 | 31.22861 | -102.92888 | 27943 ft | 406 kts | 275° |
| 2026-05-06 02:09 | 31.23469 | -102.96098 | 27941 ft | 407 kts | 275° |
| 2026-05-06 02:09 | 31.24081 | -102.99342 | 27945 ft | 407 kts | 275° |
| 2026-05-06 02:10 | 31.24684 | -103.02528 | 27943 ft | 408 kts | 274° |
| 2026-05-06 02:10 | 31.25297 | -103.05785 | 27939 ft | 407 kts | 275° |
| 2026-05-06 02:10 | 31.25896 | -103.08965 | 27942 ft | 407 kts | 275° |
| 2026-05-06 02:10 | 31.26503 | -103.12186 | 27943 ft | 407 kts | 274° |
| 2026-05-06 02:11 | 31.27111 | -103.15432 | 27942 ft | 407 kts | 275° |
| 2026-05-06 02:11 | 31.27713 | -103.18645 | 27951 ft | 407 kts | 275° |
| 2026-05-06 02:11 | 31.28316 | -103.21874 | 27948 ft | 407 kts | 274° |
| 2026-05-06 02:11 | 31.28919 | -103.25105 | 27947 ft | 407 kts | 274° |
| 2026-05-06 02:12 | 31.29525 | -103.28340 | 27953 ft | 410 kts | 275° |
| 2026-05-06 02:12 | 31.30125 | -103.31567 | 27947 ft | 409 kts | 275° |
| 2026-05-06 02:12 | 31.30731 | -103.34838 | 27936 ft | 409 kts | 274° |
| 2026-05-06 02:12 | 31.31332 | -103.38068 | 27937 ft | 409 kts | 275° |
| 2026-05-06 02:13 | 31.31933 | -103.41301 | 27941 ft | 410 kts | 274° |
| 2026-05-06 02:13 | 31.32532 | -103.44532 | 27929 ft | 410 kts | 274° |
| 2026-05-06 02:13 | 31.33128 | -103.47774 | 27925 ft | 409 kts | 275° |
| 2026-05-06 02:13 | 31.33734 | -103.51054 | 27925 ft | 409 kts | 275° |
| 2026-05-06 02:14 | 31.34330 | -103.54272 | 27927 ft | 409 kts | 274° |
| 2026-05-06 02:14 | 31.34929 | -103.57529 | 27922 ft | 410 kts | 274° |
| 2026-05-06 02:14 | 31.35529 | -103.60797 | 27930 ft | 411 kts | 274° |
| 2026-05-06 02:14 | 31.36123 | -103.64033 | 27933 ft | 411 kts | 275° |
| 2026-05-06 02:15 | 31.36719 | -103.67302 | 27947 ft | 409 kts | 274° |
| 2026-05-06 02:15 | 31.37316 | -103.70554 | 27955 ft | 410 kts | 274° |
| 2026-05-06 02:15 | 31.37905 | -103.73786 | 27950 ft | 409 kts | 274° |
| 2026-05-06 02:15 | 31.38499 | -103.77040 | 27954 ft | 409 kts | 274° |
| 2026-05-06 02:16 | 31.39094 | -103.80308 | 27969 ft | 409 kts | 274° |
| 2026-05-06 02:16 | 31.39684 | -103.83550 | 27976 ft | 410 kts | 274° |
| 2026-05-06 02:16 | 31.40271 | -103.86783 | 27981 ft | 410 kts | 274° |
| 2026-05-06 02:16 | 31.40859 | -103.90030 | 27974 ft | 410 kts | 274° |
| 2026-05-06 02:17 | 31.41455 | -103.93323 | 27974 ft | 411 kts | 274° |
| 2026-05-06 02:17 | 31.42043 | -103.96577 | 27977 ft | 411 kts | 274° |
| 2026-05-06 02:17 | 31.42628 | -103.99820 | 27975 ft | 410 kts | 274° |
| 2026-05-06 02:17 | 31.43219 | -104.03096 | 27973 ft | 410 kts | 274° |
| 2026-05-06 02:18 | 31.43805 | -104.06350 | 27981 ft | 410 kts | 274° |
| 2026-05-06 02:18 | 31.44387 | -104.09591 | 27980 ft | 410 kts | 274° |
| 2026-05-06 02:18 | 31.44971 | -104.12853 | 27980 ft | 410 kts | 273° |
| 2026-05-06 02:18 | 31.45554 | -104.16109 | 27989 ft | 409 kts | 274° |
| 2026-05-06 02:19 | 31.46141 | -104.19380 | 27997 ft | 410 kts | 273° |
| 2026-05-06 02:19 | 31.46723 | -104.22651 | 28005 ft | 409 kts | 274° |
| 2026-05-06 02:19 | 31.47878 | -104.29130 | 28012 ft | 408 kts | 274° |
| 2026-05-06 02:20 | 31.49602 | -104.38868 | 28025 ft | 408 kts | 274° |
| 2026-05-06 02:21 | 31.50755 | -104.45378 | 28039 ft | 407 kts | 273° |
| 2026-05-06 02:21 | 31.51894 | -104.51839 | 28050 ft | 408 kts | 273° |
| 2026-05-06 02:22 | 31.53036 | -104.58345 | 28043 ft | 409 kts | 273° |
| 2026-05-06 02:22 | 31.54170 | -104.64827 | 28046 ft | 408 kts | 273° |
| 2026-05-06 02:23 | 31.55306 | -104.71337 | 28051 ft | 406 kts | 272° |
| 2026-05-06 02:23 | 31.56431 | -104.77788 | 28054 ft | 407 kts | 273° |
| 2026-05-06 02:24 | 31.57558 | -104.84288 | 28057 ft | 408 kts | 272° |
| 2026-05-06 02:24 | 31.58678 | -104.90769 | 28071 ft | 407 kts | 272° |
| 2026-05-06 02:25 | 31.59793 | -104.97252 | 28070 ft | 407 kts | 272° |
| 2026-05-06 02:25 | 31.60908 | -105.03737 | 28069 ft | 407 kts | 272° |
| 2026-05-06 02:26 | 31.62024 | -105.10254 | 28063 ft | 407 kts | 272° |
| 2026-05-06 02:26 | 31.63132 | -105.16747 | 28062 ft | 407 kts | 272° |
| 2026-05-06 02:27 | 31.64238 | -105.23250 | 28058 ft | 407 kts | 272° |
| 2026-05-06 02:27 | 31.65341 | -105.29741 | 28056 ft | 408 kts | 272° |
| 2026-05-06 02:28 | 31.66435 | -105.36223 | 28053 ft | 406 kts | 272° |
| 2026-05-06 02:28 | 31.67532 | -105.42735 | 28056 ft | 408 kts | 272° |
| 2026-05-06 02:29 | 31.68626 | -105.49246 | 28061 ft | 408 kts | 272° |
| 2026-05-06 02:29 | 31.69716 | -105.55758 | 28059 ft | 407 kts | 272° |
| 2026-05-06 02:30 | 31.70806 | -105.62285 | 28069 ft | 408 kts | 272° |
| 2026-05-06 02:30 | 31.71888 | -105.68796 | 28078 ft | 408 kts | 272° |
| 2026-05-06 02:31 | 31.72974 | -105.75350 | 28084 ft | 409 kts | 272° |
| 2026-05-06 02:31 | 31.74045 | -105.81842 | 28089 ft | 408 kts | 272° |
| 2026-05-06 02:32 | 31.75126 | -105.88408 | 28090 ft | 408 kts | 272° |
| 2026-05-06 02:32 | 31.76194 | -105.94920 | 28090 ft | 408 kts | 272° |
| 2026-05-06 02:33 | 31.77261 | -106.01437 | 28072 ft | 409 kts | 272° |
| 2026-05-06 02:33 | 31.77613 | -106.03603 | 28069 ft | 408 kts | 272° |
| 2026-05-06 02:34 | 31.79391 | -106.14545 | 28045 ft | 410 kts | 272° |
| 2026-05-06 02:34 | 31.80449 | -106.21094 | 28031 ft | 409 kts | 272° |
| 2026-05-06 02:35 | 31.81446 | -106.27677 | 28022 ft | 406 kts | 270° |
| 2026-05-06 02:35 | 31.82039 | -106.34229 | 28020 ft | 405 kts | 268° |
| 2026-05-06 02:36 | 31.82746 | -106.40776 | 28015 ft | 413 kts | 274° |
| 2026-05-06 02:36 | 31.84227 | -106.47347 | 28026 ft | 414 kts | 276° |
| 2026-05-06 02:37 | 31.85730 | -106.53874 | 28017 ft | 415 kts | 276° |
| 2026-05-06 02:37 | 31.87191 | -106.60393 | 28031 ft | 414 kts | 276° |
| 2026-05-06 02:38 | 31.88636 | -106.66934 | 28027 ft | 414 kts | 275° |
| 2026-05-06 02:38 | 31.90072 | -106.73492 | 28027 ft | 415 kts | 275° |
| 2026-05-06 02:39 | 31.91495 | -106.80035 | 28032 ft | 414 kts | 276° |
| 2026-05-06 02:39 | 31.92920 | -106.86610 | 27959 ft | 414 kts | 276° |
| 2026-05-06 02:39 | 31.93625 | -106.89866 | 27889 ft | 414 kts | 276° |
| 2026-05-06 02:40 | 31.94339 | -106.93166 | 27790 ft | 414 kts | 276° |
| 2026-05-06 02:40 | 31.95047 | -106.96446 | 27696 ft | 415 kts | 276° |
| 2026-05-06 02:40 | 31.95745 | -106.99699 | 27608 ft | 414 kts | 276° |
| 2026-05-06 02:40 | 31.96453 | -107.02984 | 27506 ft | 416 kts | 276° |
| 2026-05-06 02:41 | 31.97165 | -107.06303 | 27407 ft | 417 kts | 276° |
| 2026-05-06 02:41 | 31.97868 | -107.09585 | 27303 ft | 417 kts | 276° |
| 2026-05-06 02:41 | 31.98578 | -107.12898 | 27210 ft | 416 kts | 276° |
| 2026-05-06 02:41 | 31.99282 | -107.16181 | 27112 ft | 417 kts | 276° |
| 2026-05-06 02:42 | 31.99989 | -107.19487 | 27012 ft | 417 kts | 276° |
| 2026-05-06 02:42 | 32.00693 | -107.22786 | 26915 ft | 419 kts | 275° |
| 2026-05-06 02:42 | 32.01407 | -107.26136 | 26810 ft | 419 kts | 276° |
| 2026-05-06 02:42 | 32.02103 | -107.29417 | 26711 ft | 418 kts | 276° |
| 2026-05-06 02:43 | 32.02810 | -107.32742 | 26614 ft | 420 kts | 276° |
| 2026-05-06 02:43 | 32.03518 | -107.36085 | 26514 ft | 418 kts | 276° |
| 2026-05-06 02:43 | 32.04221 | -107.39404 | 26386 ft | 419 kts | 276° |
| 2026-05-06 02:43 | 32.04924 | -107.42726 | 26286 ft | 419 kts | 276° |
| 2026-05-06 02:44 | 32.05630 | -107.46049 | 26187 ft | 421 kts | 276° |
| 2026-05-06 02:44 | 32.06330 | -107.49366 | 26087 ft | 420 kts | 276° |
| 2026-05-06 02:44 | 32.07029 | -107.52696 | 25986 ft | 420 kts | 276° |
| 2026-05-06 02:44 | 32.07732 | -107.56042 | 25886 ft | 420 kts | 276° |
| 2026-05-06 02:45 | 32.08443 | -107.59407 | 25788 ft | 422 kts | 276° |
| 2026-05-06 02:45 | 32.09142 | -107.62756 | 25688 ft | 422 kts | 276° |
| 2026-05-06 02:45 | 32.09843 | -107.66107 | 25545 ft | 419 kts | 276° |
| 2026-05-06 02:45 | 32.10535 | -107.69395 | 25425 ft | 417 kts | 275° |
| 2026-05-06 02:46 | 32.11234 | -107.72726 | 25328 ft | 419 kts | 276° |
| 2026-05-06 02:46 | 32.11924 | -107.76041 | 25226 ft | 419 kts | 276° |
| 2026-05-06 02:46 | 32.12608 | -107.79353 | 25127 ft | 418 kts | 275° |
| 2026-05-06 02:46 | 32.13306 | -107.82700 | 25027 ft | 418 kts | 276° |
| 2026-05-06 02:47 | 32.13993 | -107.86005 | 24927 ft | 419 kts | 275° |
| 2026-05-06 02:47 | 32.14683 | -107.89340 | 24829 ft | 416 kts | 276° |
| 2026-05-06 02:47 | 32.15368 | -107.92634 | 24732 ft | 415 kts | 275° |
| 2026-05-06 02:47 | 32.16050 | -107.95936 | 24636 ft | 413 kts | 276° |
| 2026-05-06 02:48 | 32.16731 | -107.99232 | 24535 ft | 414 kts | 276° |
| 2026-05-06 02:48 | 32.17409 | -108.02522 | 24434 ft | 417 kts | 276° |
| 2026-05-06 02:48 | 32.18095 | -108.05859 | 24341 ft | 421 kts | 276° |
| 2026-05-06 02:48 | 32.18784 | -108.09209 | 24243 ft | 422 kts | 275° |
| 2026-05-06 02:49 | 32.19470 | -108.12567 | 24147 ft | 420 kts | 276° |
| 2026-05-06 02:49 | 32.20157 | -108.15906 | 24057 ft | 419 kts | 276° |
| 2026-05-06 02:49 | 32.20838 | -108.19228 | 24050 ft | 420 kts | 276° |
| 2026-05-06 02:49 | 32.21524 | -108.22578 | 24054 ft | 419 kts | 276° |
| 2026-05-06 02:50 | 32.22198 | -108.25886 | 24056 ft | 418 kts | 275° |
| 2026-05-06 02:50 | 32.22883 | -108.29238 | 24056 ft | 421 kts | 276° |
| 2026-05-06 02:50 | 32.23556 | -108.32561 | 24055 ft | 419 kts | 276° |
| 2026-05-06 02:50 | 32.24234 | -108.35899 | 24051 ft | 418 kts | 276° |
| 2026-05-06 02:51 | 32.24917 | -108.39248 | 24051 ft | 418 kts | 276° |
| 2026-05-06 02:51 | 32.25596 | -108.42596 | 24058 ft | 418 kts | 276° |
| 2026-05-06 02:51 | 32.26264 | -108.45885 | 24053 ft | 418 kts | 276° |
| 2026-05-06 02:51 | 32.26946 | -108.49250 | 24047 ft | 419 kts | 276° |
| 2026-05-06 02:52 | 32.27614 | -108.52575 | 24031 ft | 417 kts | 276° |
| 2026-05-06 02:52 | 32.28283 | -108.55891 | 24035 ft | 417 kts | 276° |
| 2026-05-06 02:52 | 32.28951 | -108.59199 | 24038 ft | 417 kts | 276° |
| 2026-05-06 02:52 | 32.29623 | -108.62535 | 24040 ft | 417 kts | 276° |
| 2026-05-06 02:53 | 32.30286 | -108.65852 | 24046 ft | 416 kts | 275° |
| 2026-05-06 02:53 | 32.30954 | -108.69179 | 24043 ft | 416 kts | 275° |
| 2026-05-06 02:53 | 32.31625 | -108.72540 | 24048 ft | 415 kts | 275° |
| 2026-05-06 02:53 | 32.32283 | -108.75838 | 24055 ft | 415 kts | 275° |
| 2026-05-06 02:54 | 32.32948 | -108.79170 | 24058 ft | 415 kts | 276° |
| 2026-05-06 02:54 | 32.33605 | -108.82471 | 24046 ft | 416 kts | 276° |
| 2026-05-06 02:54 | 32.34259 | -108.85772 | 24045 ft | 415 kts | 275° |
| 2026-05-06 02:54 | 32.34919 | -108.89088 | 24057 ft | 416 kts | 275° |
| 2026-05-06 02:55 | 32.35573 | -108.92386 | 24054 ft | 416 kts | 276° |
| 2026-05-06 02:55 | 32.36231 | -108.95715 | 24051 ft | 416 kts | 276° |
| 2026-05-06 02:55 | 32.36886 | -108.99035 | 24053 ft | 414 kts | 276° |
| 2026-05-06 02:55 | 32.37543 | -109.02346 | 24047 ft | 415 kts | 276° |
| 2026-05-06 02:56 | 32.38202 | -109.05688 | 24050 ft | 415 kts | 276° |
| 2026-05-06 02:56 | 32.38855 | -109.08997 | 24047 ft | 415 kts | 276° |
| 2026-05-06 02:56 | 32.39504 | -109.12297 | 24048 ft | 415 kts | 275° |
| 2026-05-06 02:56 | 32.40160 | -109.15647 | 24052 ft | 415 kts | 276° |
| 2026-05-06 02:57 | 32.40809 | -109.18952 | 24047 ft | 416 kts | 276° |
| 2026-05-06 02:57 | 32.41468 | -109.22263 | 24036 ft | 417 kts | 277° |
| 2026-05-06 02:57 | 32.42345 | -109.25539 | 24037 ft | 422 kts | 281° |
| 2026-05-06 02:57 | 32.43333 | -109.28825 | 24048 ft | 422 kts | 281° |
| 2026-05-06 02:58 | 32.44325 | -109.32063 | 24039 ft | 421 kts | 281° |
| 2026-05-06 02:58 | 32.45313 | -109.35320 | 24046 ft | 421 kts | 282° |
| 2026-05-06 02:58 | 32.46294 | -109.38598 | 24031 ft | 421 kts | 282° |
| 2026-05-06 02:58 | 32.47262 | -109.41845 | 24033 ft | 421 kts | 281° |
| 2026-05-06 02:59 | 32.48231 | -109.45117 | 24022 ft | 422 kts | 281° |
| 2026-05-06 02:59 | 32.49192 | -109.48389 | 24040 ft | 420 kts | 281° |
| 2026-05-06 02:59 | 32.50149 | -109.51656 | 24042 ft | 421 kts | 281° |
| 2026-05-06 02:59 | 32.51100 | -109.54907 | 24026 ft | 421 kts | 281° |
| 2026-05-06 03:00 | 32.52063 | -109.58204 | 24033 ft | 423 kts | 281° |
| 2026-05-06 03:00 | 32.53020 | -109.61492 | 24026 ft | 422 kts | 281° |
| 2026-05-06 03:00 | 32.53971 | -109.64761 | 24041 ft | 422 kts | 281° |
| 2026-05-06 03:00 | 32.54917 | -109.68031 | 24058 ft | 421 kts | 280° |
| 2026-05-06 03:01 | 32.55872 | -109.71326 | 24047 ft | 422 kts | 280° |
| 2026-05-06 03:01 | 32.56822 | -109.74614 | 24029 ft | 421 kts | 281° |
| 2026-05-06 03:01 | 32.57765 | -109.77867 | 24027 ft | 421 kts | 281° |
| 2026-05-06 03:01 | 32.58716 | -109.81160 | 24050 ft | 421 kts | 281° |
| 2026-05-06 03:02 | 32.59656 | -109.84420 | 24054 ft | 421 kts | 280° |
| 2026-05-06 03:02 | 32.60610 | -109.87723 | 24029 ft | 423 kts | 281° |
| 2026-05-06 03:02 | 32.61556 | -109.91010 | 24048 ft | 422 kts | 281° |
| 2026-05-06 03:02 | 32.62497 | -109.94284 | 24025 ft | 420 kts | 281° |
| 2026-05-06 03:03 | 32.63438 | -109.97553 | 24039 ft | 422 kts | 280° |
| 2026-05-06 03:03 | 32.64377 | -110.00826 | 24049 ft | 422 kts | 280° |
| 2026-05-06 03:03 | 32.65317 | -110.04108 | 24034 ft | 422 kts | 280° |
| 2026-05-06 03:03 | 32.66266 | -110.07428 | 24041 ft | 420 kts | 280° |
| 2026-05-06 03:04 | 32.67198 | -110.10689 | 24047 ft | 421 kts | 280° |
| 2026-05-06 03:04 | 32.68134 | -110.13966 | 24037 ft | 421 kts | 281° |
| 2026-05-06 03:04 | 32.69071 | -110.17248 | 24036 ft | 421 kts | 280° |
| 2026-05-06 03:04 | 32.70000 | -110.20511 | 24053 ft | 421 kts | 280° |
| 2026-05-06 03:05 | 32.70937 | -110.23795 | 24037 ft | 422 kts | 281° |
| 2026-05-06 03:05 | 32.71873 | -110.27089 | 24019 ft | 421 kts | 280° |
| 2026-05-06 03:05 | 32.72811 | -110.30389 | 24010 ft | 421 kts | 281° |
| 2026-05-06 03:05 | 32.73739 | -110.33655 | 24028 ft | 421 kts | 281° |
| 2026-05-06 03:06 | 32.74367 | -110.35880 | 24024 ft | 419 kts | 280° |
| 2026-05-06 03:06 | 32.75600 | -110.40229 | 24011 ft | 420 kts | 281° |
| 2026-05-06 03:06 | 32.76529 | -110.43514 | 24019 ft | 420 kts | 280° |
| 2026-05-06 03:06 | 32.77457 | -110.46806 | 24020 ft | 420 kts | 280° |
| 2026-05-06 03:07 | 32.78079 | -110.49016 | 24025 ft | 420 kts | 281° |
| 2026-05-06 03:07 | 32.78997 | -110.52267 | 24003 ft | 422 kts | 281° |
| 2026-05-06 03:07 | 32.79923 | -110.55560 | 24005 ft | 422 kts | 280° |